1874 Hurricane NOT_NAMED (1874241N14326)


IBTrACS version v04r00. Visit IBTrACS website for data access.
Please direct all questions to the IBTrACS Q and A forum

Storm track - Intensity - Wind Radii - Intensity Data - Source Data - All data

Summary Information

Storm ID 1874241N14326
Start Aug 29 00Z
Landfall Sep 8 06Z
Max Intensity 95 kt (Sep 3 00Z), 965 mb (Sep 6 12Z)
End Sep 8 18Z
ATCF IDs ,AL031874
Track status Best track data.

Storm track plot

Map of storm track

Intensity plots

Map of storm track

Radial wind information

No radial wind information for this storm


Position and Intensity Table

BASIN ISO_TIME_________ NATURE LAT LON WMO WIND USA WIND MLC WIND MLC PRES
degrees north degrees east kts kts kts mb
NA 1874-08-29 00:00:00 TS 13.60 -34.50 40 40
NA 03:00:00 TS 13.70 -35.00 40
NA 06:00:00 TS 13.80 -35.50 40 40
NA 09:00:00 TS 13.89 -36.00 40
NA 12:00:00 TS 14.00 -36.50 40 40
NA 15:00:00 TS 14.14 -37.00 40
NA 18:00:00 TS 14.30 -37.50 40 40
NA 21:00:00 TS 14.45 -38.00 40
NA 1874-08-30 00:00:00 TS 14.60 -38.50 40 40
NA 03:00:00 TS 14.74 -39.00 40
NA 06:00:00 TS 14.90 -39.50 40 40
NA 09:00:00 TS 15.10 -40.01 40
NA 12:00:00 TS 15.30 -40.50 40 40
NA 15:00:00 TS 15.46 -40.95 40
NA 18:00:00 TS 15.60 -41.40 40 40
NA 21:00:00 TS 15.75 -41.89 45
NA 1874-08-31 00:00:00 TS 15.90 -42.40 50 50
NA 03:00:00 TS 16.03 -42.94 50
NA 06:00:00 TS 16.20 -43.50 50 50
NA 09:00:00 TS 16.45 -44.10 50
NA 12:00:00 TS 16.70 -44.70 50 50
NA 15:00:00 TS 16.85 -45.26 50
NA 18:00:00 TS 17.00 -45.80 50 50
NA 21:00:00 TS 17.26 -46.35 55
NA 1874-09-01 00:00:00 TS 17.50 -46.90 60 60
NA 03:00:00 TS 17.60 -47.44 60
NA 06:00:00 TS 17.70 -48.00 60 60
NA 09:00:00 TS 17.93 -48.64 60
NA 12:00:00 TS 18.20 -49.30 60 60
NA 15:00:00 TS 18.43 -49.90 60
NA 18:00:00 TS 18.70 -50.50 60 60
NA 21:00:00 TS 19.05 -51.16 65
NA 1874-09-02 00:00:00 TS 19.40 -51.80 70 70
NA 03:00:00 TS 19.66 -52.31 70
NA 06:00:00 TS 19.90 -52.80 70 70
NA 09:00:00 TS 20.24 -53.79 70
NA 12:00:00 TS 20.64 -54.64 70 70 85
NA 15:00:00 TS 21.07 -55.33 70 87
NA 18:00:00 TS 21.53 -55.93 70 70 90
NA 21:00:00 TS 21.93 -56.35 70 92
NA 1874-09-03 00:00:00 TS 22.33 -56.80 70 70 95
NA 03:00:00 TS 22.75 -57.33 70 95
NA 06:00:00 TS 23.17 -57.87 70 70 95
NA 09:00:00 TS 23.55 -58.31 70 95
NA 12:00:00 TS 23.93 -58.73 70 70 95
NA 15:00:00 TS 24.30 -59.18 70 95
NA 18:00:00 TS 24.70 -59.63 70 70 95
NA 21:00:00 TS 25.16 -60.07 70 95
NA 1874-09-04 00:00:00 TS 25.67 -60.50 70 70 95
NA 03:00:00 TS 26.18 -60.96 70 95
NA 06:00:00 TS 26.70 -61.40 70 70 95
NA 09:00:00 TS 27.20 -61.77 70 95
NA 12:00:00 TS 27.67 -62.10 70 70 95
NA 15:00:00 TS 28.08 -62.46 70 95
NA 18:00:00 TS 28.47 -62.80 70 70 95
NA 21:00:00 TS 28.86 -63.11 70 95
NA 1874-09-05 00:00:00 TS 29.27 -63.43 70 70 95
NA 03:00:00 TS 29.71 -63.86 70 95
NA 06:00:00 TS 30.17 -64.27 70 70 95
NA 09:00:00 TS 30.58 -64.55 70 95
NA 12:00:00 TS 31.00 -64.80 70 70 95
NA 15:00:00 TS 31.46 -65.10 70 95
NA 18:00:00 TS 31.93 -65.40 70 70 95
NA 21:00:00 TS 32.41 -65.69 75 95
NA 1874-09-06 00:00:00 TS 32.90 -65.97 80 80 95
NA 03:00:00 TS 33.37 -66.22 80 95
NA 06:00:00 TS 33.87 -66.47 80 80 95
NA 09:00:00 TS 34.41 -66.71 80 92
NA 12:00:00 TS 35.03 -66.93 80 80 90 965
NA 15:00:00 TS 35.76 -67.18 80 87
NA 18:00:00 TS 36.57 -67.30 80 80 85
NA 21:00:00 TS 37.41 -67.23 80 85
NA 1874-09-07 00:00:00 TS 38.30 -66.93 80 80 85
NA 03:00:00 TS 39.19 -66.43 80 85
NA 06:00:00 TS 40.10 -65.73 80 80 85
NA 09:00:00 TS 40.98 -65.06 75 82
NA 12:00:00 MX 41.93 -64.03 70 70 80 975
NA 15:00:00 MX 43.07 -62.27 70 77 977
NA 18:00:00 ET 44.17 -60.33 70 70 75 980
NA 21:00:00 ET 45.04 -58.91 65 72
NA 1874-09-08 00:00:00 ET 45.80 -57.60 60 60 70
NA 03:00:00 ET 46.51 -56.27 60 65
NA 06:00:00 ET 47.50 -55.00 60 60 60
NA 09:00:00 ET 50.00 -53.61 55
NA 12:00:00 ET 52.50 -52.00 50
NA 15:00:00 ET 53.88 -50.45 45
NA 18:00:00 ET 54.50 -49.00 40

Source Information

Agency Information
USA hurdat2-1851-2018-051019.txt:Line=2711:UNNAMED
TOKYO
CMA
HKO
NEWDELHI
REUNION
BOM
NADI
WELLINGTON
DS824
TD9636
TD9635
NEUMANN
MLC

All available IBTrACS Data

SEASON BASIN SUBBASIN ISO_TIME_________ NATURE LAT LON WMO WIND WMO AGENCY DIST2LAND LANDFALL IFLAG USA AGENCY USA ATCF_ID USA LAT USA LON USA STATUS USA WIND USA SSHS MLC LAT MLC LON MLC CLASS MLC WIND MLC PRES STORM SPEED STORM DIR
Year degrees north degrees east kts km km degrees north degrees east kts 1 degrees north degrees east kts mb kts degrees
1874 NA NA 1874-08-29 00:00:00 TS 13.60 -34.50 40 hurdat_atl 1837 1837 O_____________ hurdat_atl AL031874 13.60 -34.50 TS 40 0 10 282
1874 NA NA 03:00:00 TS 13.70 -35.00 1890 1890 P_____________ AL031874 13.70 -35.00 TS 40 0 10 282
1874 NA NA 06:00:00 TS 13.80 -35.50 40 hurdat_atl 1930 1922 O_____________ hurdat_atl AL031874 13.80 -35.50 TS 40 0 10 281
1874 NA NA 09:00:00 TS 13.89 -36.00 1928 1921 P_____________ AL031874 13.89 -36.00 TS 40 0 10 282
1874 NA NA 12:00:00 TS 14.00 -36.50 40 hurdat_atl 1928 1914 O_____________ hurdat_atl AL031874 14.00 -36.50 TS 40 0 10 284
1874 NA NA 15:00:00 TS 14.14 -37.00 1914 1882 P_____________ AL031874 14.14 -37.00 TS 40 0 10 287
1874 NA NA 18:00:00 TS 14.30 -37.50 40 hurdat_atl 1882 1845 O_____________ hurdat_atl AL031874 14.30 -37.50 TS 40 0 10 288
1874 NA NA 21:00:00 TS 14.45 -38.00 1845 1816 P_____________ AL031874 14.45 -38.00 TS 40 0 10 287
1874 NA NA 1874-08-30 00:00:00 TS 14.60 -38.50 40 hurdat_atl 1816 1781 O_____________ hurdat_atl AL031874 14.60 -38.50 TS 40 0 10 287
1874 NA NA 03:00:00 TS 14.74 -39.00 1781 1755 P_____________ AL031874 14.74 -39.00 TS 40 0 10 287
1874 NA NA 06:00:00 TS 14.90 -39.50 40 hurdat_atl 1755 1730 O_____________ hurdat_atl AL031874 14.90 -39.50 TS 40 0 10 290
1874 NA NA 09:00:00 TS 15.10 -40.01 1730 1707 P_____________ AL031874 15.10 -40.01 TS 40 0 10 293
1874 NA NA 12:00:00 TS 15.30 -40.50 40 hurdat_atl 1707 1685 O_____________ hurdat_atl AL031874 15.30 -40.50 TS 40 0 10 291
1874 NA NA 15:00:00 TS 15.46 -40.95 1686 1665 P_____________ AL031874 15.46 -40.95 TS 40 0 9 289
1874 NA NA 18:00:00 TS 15.60 -41.40 40 hurdat_atl 1665 1639 O_____________ hurdat_atl AL031874 15.60 -41.40 TS 40 0 9 288
1874 NA NA 21:00:00 TS 15.75 -41.89 1639 1623 P_____________ AL031874 15.75 -41.89 TS 45 0 10 287
1874 NA NA 1874-08-31 00:00:00 TS 15.90 -42.40 50 hurdat_atl 1623 1600 O_____________ hurdat_atl AL031874 15.90 -42.40 TS 50 0 11 286
1874 NA NA 03:00:00 TS 16.03 -42.94 1600 1582 P_____________ AL031874 16.03 -42.94 TS 50 0 11 286
1874 NA NA 06:00:00 TS 16.20 -43.50 50 hurdat_atl 1582 1559 O_____________ hurdat_atl AL031874 16.20 -43.50 TS 50 0 12 290
1874 NA NA 09:00:00 TS 16.45 -44.10 1559 1549 P_____________ AL031874 16.45 -44.10 TS 50 0 13 293
1874 NA NA 12:00:00 TS 16.70 -44.70 50 hurdat_atl 1549 1529 O_____________ hurdat_atl AL031874 16.70 -44.70 TS 50 0 12 290
1874 NA NA 15:00:00 TS 16.85 -45.26 1523 1515 P_____________ AL031874 16.85 -45.26 TS 50 0 11 286
1874 NA NA 18:00:00 TS 17.00 -45.80 50 hurdat_atl 1515 1508 O_____________ hurdat_atl AL031874 17.00 -45.80 TS 50 0 11 291
1874 NA NA 21:00:00 TS 17.26 -46.35 1518 1508 P_____________ AL031874 17.26 -46.35 TS 55 0 12 295
1874 NA NA 1874-09-01 00:00:00 TS 17.50 -46.90 60 hurdat_atl 1509 1497 O_____________ hurdat_atl AL031874 17.50 -46.90 TS 60 0 11 288
1874 NA NA 03:00:00 TS 17.60 -47.44 1497 1483 P_____________ AL031874 17.60 -47.44 TS 60 0 11 281
1874 NA NA 06:00:00 TS 17.70 -48.00 60 hurdat_atl 1483 1474 O_____________ hurdat_atl AL031874 17.70 -48.00 TS 60 0 12 286
1874 NA NA 09:00:00 TS 17.93 -48.64 1475 1470 P_____________ AL031874 17.93 -48.64 TS 60 0 13 292
1874 NA NA 12:00:00 TS 18.20 -49.30 60 hurdat_atl 1476 1471 O_____________ hurdat_atl AL031874 18.20 -49.30 TS 60 0 13 293
1874 NA NA 15:00:00 TS 18.43 -49.90 1472 1440 P_____________ AL031874 18.43 -49.90 TS 60 0 12 294
1874 NA NA 18:00:00 TS 18.70 -50.50 60 hurdat_atl 1440 1412 O_____________ hurdat_atl AL031874 18.70 -50.50 TS 60 0 13 297
1874 NA NA 21:00:00 TS 19.05 -51.16 1411 1386 P_____________ AL031874 19.05 -51.16 TS 65 1 14 300
1874 NA NA 1874-09-02 00:00:00 TS 19.40 -51.80 70 hurdat_atl 1386 1364 O_____________ hurdat_atl AL031874 19.40 -51.80 HU 70 1 12 299
1874 NA NA 03:00:00 TS 19.66 -52.31 1372 1352 P_____________ AL031874 19.66 -52.31 HU 70 1 11 298
1874 NA NA 06:00:00 TS 19.90 -52.80 70 hurdat_atl 1353 1264 O_____________ hurdat_atl AL031874 19.90 -52.80 HU 70 1 15 293
1874 NA NA 09:00:00 TS 20.24 -53.79 1254 1178 P_____________ AL031874 20.19 -53.40 HU 70 1 19 293
1874 NA NA 12:00:00 TS 20.64 -54.64 70 hurdat_atl 1178 1116 O____________O hurdat_atl AL031874 20.50 -54.00 HU 70 1 21.20 -57.20 HU 85 17 300
1874 NA NA 15:00:00 TS 21.07 -55.33 1119 1071 P____________P AL031874 20.80 -54.52 HU 70 1 21.80 -57.51 HU 87 15 307
1874 NA NA 18:00:00 TS 21.53 -55.93 70 hurdat_atl 1071 1042 O____________O hurdat_atl AL031874 21.10 -55.00 HU 70 1 22.40 -57.80 HU 90 13 312
1874 NA NA 21:00:00 TS 21.93 -56.35 1036 1015 P____________P AL031874 21.39 -55.49 HU 70 1 23.01 -58.07 HU 92 11 315
1874 NA NA 1874-09-03 00:00:00 TS 22.33 -56.80 70 hurdat_atl 1015 988 O____________O hurdat_atl AL031874 21.70 -56.00 HU 70 1 23.60 -58.40 HU 95 12 312
1874 NA NA 03:00:00 TS 22.75 -57.33 993 966 P____________P AL031874 22.05 -56.56 HU 70 1 24.16 -58.88 HU 95 13 310
1874 NA NA 06:00:00 TS 23.17 -57.87 70 hurdat_atl 963 948 O____________O hurdat_atl AL031874 22.40 -57.10 HU 70 1 24.70 -59.40 HU 95 12 312
1874 NA NA 09:00:00 TS 23.55 -58.31 954 943 P____________P AL031874 22.71 -57.57 HU 70 1 25.25 -59.81 HU 95 11 314
1874 NA NA 12:00:00 TS 23.93 -58.73 70 hurdat_atl 943 934 O____________O hurdat_atl AL031874 23.00 -58.00 HU 70 1 25.80 -60.20 HU 95 11 313
1874 NA NA 15:00:00 TS 24.30 -59.18 934 928 P____________P AL031874 23.28 -58.45 HU 70 1 26.35 -60.65 HU 95 11 313
1874 NA NA 18:00:00 TS 24.70 -59.63 70 hurdat_atl 938 931 O____________O hurdat_atl AL031874 23.60 -58.90 HU 70 1 26.90 -61.10 HU 95 12 317
1874 NA NA 21:00:00 TS 25.16 -60.07 948 948 P____________P AL031874 24.03 -59.35 HU 70 1 27.43 -61.50 HU 95 12 321
1874 NA NA 1874-09-04 00:00:00 TS 25.67 -60.50 70 hurdat_atl 970 964 O____________O hurdat_atl AL031874 24.50 -59.80 HU 70 1 28.00 -61.90 HU 95 13 322
1874 NA NA 03:00:00 TS 26.18 -60.96 991 991 P____________P AL031874 24.93 -60.26 HU 70 1 28.68 -62.37 HU 95 13 322
1874 NA NA 06:00:00 TS 26.70 -61.40 70 hurdat_atl 1022 1022 O____________O hurdat_atl AL031874 25.40 -60.70 HU 70 1 29.30 -62.80 HU 95 12 325
1874 NA NA 09:00:00 TS 27.20 -61.77 1057 1057 P____________P AL031874 25.96 -61.11 HU 70 1 29.69 -63.07 HU 95 12 327
1874 NA NA 12:00:00 TS 27.67 -62.10 70 hurdat_atl 1099 1095 O____________O hurdat_atl AL031874 26.50 -61.50 HU 70 1 30.00 -63.30 HU 95 11 325
1874 NA NA 15:00:00 TS 28.08 -62.46 1129 1129 P____________P AL031874 26.92 -61.86 HU 70 1 30.39 -63.65 HU 95 10 322
1874 NA NA 18:00:00 TS 28.47 -62.80 70 hurdat_atl 1164 1161 O____________O hurdat_atl AL031874 27.30 -62.20 HU 70 1 30.80 -64.00 HU 95 10 324
1874 NA NA 21:00:00 TS 28.86 -63.11 1200 1198 P____________P AL031874 27.68 -62.54 HU 70 1 31.21 -64.25 HU 95 10 325
1874 NA NA 1874-09-05 00:00:00 TS 29.27 -63.43 70 hurdat_atl 1238 1236 O____________O hurdat_atl AL031874 28.10 -62.90 HU 70 1 31.60 -64.50 HU 95 11 323
1874 NA NA 03:00:00 TS 29.71 -63.86 1274 1228 P____________P AL031874 28.59 -63.36 HU 70 1 31.96 -64.84 HU 95 12 321
1874 NA NA 06:00:00 TS 30.17 -64.27 70 hurdat_atl 1213 1173 O____________O hurdat_atl AL031874 29.10 -63.80 HU 70 1 32.30 -65.20 HU 95 11 325
1874 NA NA 09:00:00 TS 30.58 -64.55 1165 1125 P____________P AL031874 29.54 -64.07 HU 70 1 32.66 -65.52 HU 95 10 331
1874 NA NA 12:00:00 TS 31.00 -64.80 70 hurdat_atl 1125 1078 O____________O hurdat_atl AL031874 30.00 -64.30 HU 70 1 33.00 -65.80 HU 95 10 332
1874 NA NA 15:00:00 TS 31.46 -65.10 1072 1026 P____________P AL031874 30.53 -64.64 HU 70 1 33.31 -66.01 HU 95 11 331
1874 NA NA 18:00:00 TS 31.93 -65.40 70 hurdat_atl 1026 976 O____________O hurdat_atl AL031874 31.10 -65.00 HU 70 1 33.60 -66.20 HU 95 11 332
1874 NA NA 21:00:00 TS 32.41 -65.69 976 927 P____________P AL031874 31.69 -65.32 HU 75 1 33.86 -66.44 HU 95 11 334
1874 NA NA 1874-09-06 00:00:00 TS 32.90 -65.97 80 hurdat_atl 927 893 O____________O hurdat_atl AL031874 32.30 -65.60 HU 80 1 34.10 -66.70 HU 95 11 335
1874 NA NA 03:00:00 TS 33.37 -66.22 890 849 P____________P AL031874 32.88 -65.86 HU 80 1 34.35 -66.96 HU 95 11 337
1874 NA NA 06:00:00 TS 33.87 -66.47 80 hurdat_atl 846 813 O____________O hurdat_atl AL031874 33.50 -66.10 HU 80 1 34.60 -67.20 HU 95 11 339
1874 NA NA 09:00:00 TS 34.41 -66.71 813 782 P____________P AL031874 34.19 -66.36 HU 80 1 34.84 -67.42 HU 92 12 342
1874 NA NA 12:00:00 TS 35.03 -66.93 80 hurdat_atl 782 710 O____________O hurdat_atl AL031874 35.00 -66.60 HU 80 1 35.10 -67.60 HU 90 965 14 344
1874 NA NA 15:00:00 TS 35.76 -67.18 699 623 P____________P AL031874 35.94 -66.87 HU 80 1 35.39 -67.79 HU 87 16 349
1874 NA NA 18:00:00 TS 36.57 -67.30 80 hurdat_atl 613 535 O____________O hurdat_atl AL031874 37.00 -67.00 HU 80 1 35.70 -67.90 HU 85 17 359
1874 NA NA 21:00:00 TS 37.41 -67.23 535 456 P____________P AL031874 38.15 -66.88 HU 80 1 35.94 -67.93 HU 85 18 9
1874 NA NA 1874-09-07 00:00:00 TS 38.30 -66.93 80 hurdat_atl 460 413 O____________O hurdat_atl AL031874 39.30 -66.50 HU 80 1 36.30 -67.80 HU 85 19 19
1874 NA NA 03:00:00 TS 39.19 -66.43 411 378 P____________P AL031874 40.35 -65.88 HU 80 1 36.87 -67.53 HU 85 20 27
1874 NA NA 06:00:00 TS 40.10 -65.73 80 hurdat_atl 378 289 O____________O hurdat_atl AL031874 41.30 -65.10 HU 80 1 37.70 -67.00 HU 85 21 30
1874 NA NA 09:00:00 TS 40.98 -65.06 278 202 P____________P AL031874 42.13 -64.38 HU 75 1 38.68 -66.42 HU 82 22 35
1874 NA NA 12:00:00 MX 41.93 -64.03 70 hurdat_atl 207 182 O____________O hurdat_atl AL031874 42.90 -63.50 EX 70 -4 40.00 -65.10 HU 80 975 29 45
1874 NA NA 15:00:00 MX 43.07 -62.27 178 131 P____________P AL031874 43.71 -62.35 EX 70 -4 41.80 -62.11 HU 77 977 35 50
1874 NA NA 18:00:00 ET 44.17 -60.33 70 hurdat_atl 127 121 O____________O hurdat_atl AL031874 44.50 -61.00 EX 70 -4 43.50 -59.00 EX 75 980 31 51
1874 NA NA 21:00:00 ET 45.04 -58.91 128 127 P____________P AL031874 45.26 -59.53 EX 65 -4 44.60 -57.66 EX 72 25 50
1874 NA NA 1874-09-08 00:00:00 ET 45.80 -57.60 60 hurdat_atl 174 56 O____________O hurdat_atl AL031874 46.00 -58.00 EX 60 -4 45.50 -57.00 EX 70 24 51
1874 NA NA 03:00:00 ET 46.51 -56.27 56 0 P____________P AL031874 46.75 -56.50 EX 60 -4 46.27 -56.05 EX 65 25 46
1874 NA NA 06:00:00 ET 47.50 -55.00 60 hurdat_atl 0 0 O____________O hurdat_atl AL031874 47.50 -55.00 EX 60 -4 47.50 -55.00 EX 60 39 27
1874 NA NA 09:00:00 ET 50.00 -53.61 68 68 _____________P AL031874 EX -4 50.00 -53.61 EX 55 53 21
1874 NA NA 12:00:00 ET 52.50 -52.00 242 242 _____________O 52.50 -52.00 EX 50 43 26
1874 NA NA 15:00:00 ET 53.88 -50.45 354 354 _____________P 53.88 -50.45 EX 45 27 41
1874 NA NA 18:00:00 ET 54.50 -49.00 462 _____________O 54.50 -49.00 EX 40 21 53